createdAt,value
2023-03-23T15:59:58.170Z,14.90
2023-03-23T16:02:27.244Z,14.93
2023-03-23T16:04:54.977Z,14.95
2023-03-23T16:07:24.855Z,15.09
2023-03-23T16:09:52.498Z,14.90
2023-03-23T16:12:20.325Z,15.15
2023-03-23T16:14:48.107Z,15.21
2023-03-23T16:17:19.647Z,14.97
2023-03-23T16:19:48.953Z,14.95
2023-03-23T16:22:18.460Z,14.91
2023-03-23T16:24:46.338Z,14.91
2023-03-23T16:27:14.356Z,15.03
2023-03-23T16:30:02.399Z,15.08
2023-03-23T16:32:29.789Z,15.12
2023-03-23T16:34:58.753Z,15.10
2023-03-23T16:37:26.527Z,15.06
2023-03-23T16:39:54.196Z,15.00
2023-03-23T16:42:21.793Z,15.13
2023-03-23T16:44:50.665Z,15.10
2023-03-23T16:47:19.047Z,15.19
2023-03-23T16:49:46.813Z,15.10
2023-03-23T16:52:16.043Z,15.17
2023-03-23T16:54:43.811Z,15.08
2023-03-23T16:57:11.575Z,15.06
2023-03-23T16:59:39.297Z,15.04
2023-03-23T17:02:06.961Z,15.09
2023-03-23T17:04:35.250Z,15.05
2023-03-23T17:07:03.154Z,14.97
2023-03-23T17:09:32.333Z,14.98
2023-03-23T17:12:00.260Z,14.98
2023-03-23T17:14:27.888Z,14.78
2023-03-23T17:16:56.707Z,14.72
2023-03-23T17:19:24.567Z,14.61
2023-03-23T17:21:52.474Z,14.67
2023-03-23T17:24:20.308Z,14.67
2023-03-23T17:26:49.235Z,14.61
2023-03-23T17:29:16.973Z,14.68
2023-03-23T17:31:44.737Z,14.74
2023-03-23T17:34:12.442Z,14.71
2023-03-23T17:36:40.128Z,14.72
2023-03-23T17:39:07.811Z,14.76
2023-03-23T17:41:35.711Z,14.71
2023-03-23T17:44:04.817Z,14.70
2023-03-23T17:46:32.549Z,14.59
2023-03-23T17:49:00.169Z,14.71
2023-03-23T17:51:27.941Z,14.70
2023-03-23T17:53:55.864Z,14.67
2023-03-23T17:56:23.935Z,14.70
2023-03-23T17:58:51.721Z,14.62
2023-03-23T18:01:20.943Z,14.55
2023-03-23T18:03:48.738Z,14.38
2023-03-23T18:06:16.492Z,14.29
2023-03-23T18:08:44.579Z,14.22
2023-03-23T18:11:12.266Z,14.26
2023-03-23T18:13:40.436Z,14.17
2023-03-23T18:16:08.995Z,14.07
2023-03-23T18:18:38.067Z,13.99
2023-03-23T18:21:08.499Z,13.89
2023-03-23T18:23:46.064Z,13.93
2023-03-23T18:26:17.904Z,13.82
2023-03-23T18:28:45.693Z,13.60
2023-03-23T18:31:16.909Z,13.76
2023-03-23T18:33:49.462Z,13.66
2023-03-23T18:36:20.093Z,13.70
2023-03-23T18:38:48.763Z,13.65
2023-03-23T18:41:18.068Z,13.66
2023-03-23T18:43:46.085Z,13.62
2023-03-23T18:46:14.231Z,13.50
2023-03-23T18:48:42.045Z,13.24
2023-03-23T18:51:11.808Z,13.44
2023-03-23T18:53:39.954Z,13.49
2023-03-23T18:56:10.526Z,13.47
2023-03-23T18:58:39.360Z,13.37
2023-03-23T19:01:09.074Z,13.33
2023-03-23T19:03:37.950Z,13.29
2023-03-23T19:06:07.029Z,13.20
2023-03-23T19:08:36.036Z,13.36
2023-03-23T19:11:05.810Z,13.43
2023-03-23T19:13:36.878Z,13.26
2023-03-23T19:16:05.721Z,13.35
2023-03-23T19:18:34.091Z,13.35
2023-03-23T19:23:32.460Z,13.26
2023-03-23T19:26:01.733Z,13.30
2023-03-23T19:31:00.198Z,13.30
2023-03-23T19:33:27.989Z,13.41
2023-03-23T19:36:06.739Z,13.42
2023-03-23T19:38:37.727Z,13.36
2023-03-23T19:41:07.263Z,13.38
2023-03-23T19:43:36.288Z,13.41
2023-03-23T19:46:05.412Z,13.50
2023-03-23T19:48:33.179Z,13.41
2023-03-23T19:51:01.525Z,13.51
2023-03-23T19:53:29.190Z,13.66
2023-03-23T19:55:57.010Z,13.83
2023-03-23T19:58:27.184Z,14.05
2023-03-23T20:00:54.885Z,14.59
2023-03-23T20:03:22.764Z,14.83
2023-03-23T20:05:50.729Z,14.74
2023-03-23T20:08:18.577Z,15.02
2023-03-23T20:10:46.194Z,15.23
2023-03-23T20:13:13.866Z,15.27
2023-03-23T20:15:42.969Z,15.31
2023-03-23T20:18:14.422Z,15.34
2023-03-23T20:20:42.140Z,15.41
2023-03-23T20:23:09.800Z,15.36
2023-03-23T20:25:37.464Z,15.42
2023-03-23T20:28:06.147Z,15.43
2023-03-23T20:30:34.407Z,15.34
2023-03-23T20:33:03.475Z,15.54
2023-03-23T20:35:31.823Z,15.62
2023-03-23T20:38:00.147Z,15.63
2023-03-23T20:40:27.759Z,15.71
2023-03-23T20:42:57.714Z,15.79
2023-03-23T20:45:25.736Z,15.77
2023-03-23T20:47:54.025Z,15.78
2023-03-23T20:50:23.033Z,15.79
2023-03-23T20:52:50.852Z,15.82
2023-03-23T20:55:18.938Z,15.86
2023-03-23T20:57:46.937Z,15.91
2023-03-23T21:00:17.882Z,15.91
2023-03-23T21:02:49.443Z,15.91
2023-03-23T21:05:17.157Z,15.90
2023-03-23T21:07:46.677Z,15.88
2023-03-23T21:10:14.386Z,15.91
2023-03-23T21:12:42.012Z,15.96
2023-03-23T21:15:10.039Z,15.93
2023-03-23T21:17:37.763Z,15.84
2023-03-23T21:20:08.130Z,15.91
2023-03-23T21:22:35.936Z,15.99
2023-03-23T21:25:05.653Z,16.07
2023-03-23T21:27:33.398Z,16.04
2023-03-23T21:30:01.173Z,16.09
2023-03-23T21:32:28.989Z,16.12
2023-03-23T21:34:58.707Z,16.12
2023-03-23T21:37:26.342Z,16.17
2023-03-23T21:39:54.019Z,16.03
2023-03-23T21:42:30.277Z,15.45
2023-03-23T21:44:58.116Z,16.08
2023-03-23T21:47:26.462Z,15.87
2023-03-23T21:49:56.528Z,15.93
2023-03-23T21:52:24.507Z,15.93
2023-03-23T21:54:52.658Z,15.90
2023-03-23T21:57:21.262Z,15.90
2023-03-23T21:59:50.394Z,15.71
2023-03-23T22:02:18.127Z,15.72
2023-03-23T22:04:46.039Z,15.99
2023-03-23T22:07:14.340Z,15.90
2023-03-23T22:09:44.795Z,15.82
2023-03-23T22:12:13.250Z,15.89
2023-03-23T22:14:41.123Z,15.80
2023-03-23T22:17:10.271Z,15.84
2023-03-23T22:19:39.291Z,15.93
2023-03-23T22:22:07.186Z,16.01
2023-03-23T22:24:35.059Z,16.03
2023-03-23T22:27:02.858Z,15.95
2023-03-23T22:29:30.649Z,15.84
2023-03-23T22:31:58.846Z,15.76
2023-03-23T22:34:28.029Z,15.76
2023-03-23T22:36:56.328Z,15.66
2023-03-23T22:39:24.324Z,15.69
2023-03-23T22:41:52.097Z,15.56
2023-03-23T22:44:20.076Z,15.51
2023-03-23T22:46:47.855Z,15.58
2023-03-23T22:49:15.762Z,15.47
2023-03-23T22:51:45.508Z,15.58
2023-03-23T22:54:13.382Z,15.44
2023-03-23T22:56:41.136Z,15.46
2023-03-23T22:59:09.165Z,15.38
2023-03-23T23:01:37.112Z,15.43
2023-03-23T23:04:05.212Z,15.38
2023-03-23T23:06:33.039Z,15.53
2023-03-23T23:09:02.954Z,15.49
2023-03-23T23:11:31.313Z,15.59
2023-03-23T23:13:59.156Z,15.57
2023-03-23T23:16:27.627Z,15.59
2023-03-23T23:18:55.920Z,15.64
2023-03-23T23:21:25.995Z,15.64
2023-03-23T23:23:54.279Z,15.62
2023-03-23T23:26:23.624Z,15.46
2023-03-23T23:28:51.883Z,15.64
2023-03-23T23:31:26.106Z,15.67
2023-03-23T23:33:55.510Z,15.61
2023-03-23T23:36:23.299Z,15.65
2023-03-23T23:38:51.474Z,15.68
2023-03-23T23:41:19.239Z,15.71
2023-03-23T23:43:48.402Z,15.68
2023-03-23T23:46:16.203Z,15.58
2023-03-23T23:48:45.010Z,15.61
2023-03-23T23:51:15.223Z,15.51
2023-03-23T23:53:44.060Z,15.39
2023-03-23T23:56:13.663Z,15.27
2023-03-23T23:58:41.416Z,15.20
